Aneityum, Vanuatu
Current Conditions -  °F | °C
As of 4:00 PM on Thursday 23 Oct 2014 (Local Time) from NVVV Reporting Station
Broken Clouds Broken Clouds  
Wind Chill: 79°   Ceiling: 4000
Heat Index: 81°   Visibility: 6mi
Dew Point: 70°   Wind: 12mph
Humidity: 74%   Direction: 100°E
Pressure: 29.85"   Gusts: NA
Location:  20.23°S, 169.77°E
Report Text: NVVV 230500Z 10010KT 9999 SCT020 BKN040 26/21 Q1011 RMK NIL
Loading
Personal Weather Stations






























Interactive Weather Map
Tropical Storm Tracking
New forecast layout! Learn more

10-Day Weather Forecast

Advertisements
Track Severe Weather on mobile